createdAt,value
2023-05-02T00:02:06.438Z,3.03
2023-05-02T00:04:33.704Z,2.78
2023-05-02T00:07:01.263Z,2.80
2023-05-02T00:09:29.377Z,2.47
2023-05-02T00:11:56.288Z,2.70
2023-05-02T00:14:23.227Z,2.75
2023-05-02T00:16:50.215Z,2.80
2023-05-02T00:19:17.331Z,2.50
2023-05-02T00:21:47.346Z,2.30
2023-05-02T00:24:14.253Z,2.65
2023-05-02T00:26:41.276Z,2.58
2023-05-02T00:29:08.741Z,2.97
2023-05-02T00:31:36.526Z,2.90
2023-05-02T00:34:03.589Z,2.53
2023-05-02T00:36:30.526Z,2.53
2023-05-02T00:38:57.528Z,1.80
2023-05-02T00:41:24.646Z,2.15
2023-05-02T00:43:51.628Z,2.08
2023-05-02T00:46:18.675Z,2.20
2023-05-02T00:48:46.037Z,1.87
2023-05-02T00:51:13.654Z,1.70
2023-05-02T00:53:42.019Z,2.30
2023-05-02T00:56:10.237Z,2.03
2023-05-02T00:58:41.083Z,2.28
2023-05-02T01:01:26.582Z,2.25
2023-05-02T01:04:33.206Z,2.15
2023-05-02T01:07:06.848Z,2.67
2023-05-02T01:09:58.911Z,2.10
2023-05-02T01:12:42.621Z,2.87
2023-05-02T01:15:15.198Z,2.33
2023-05-02T01:17:44.557Z,2.80
2023-05-02T01:20:20.344Z,2.50
2023-05-02T01:22:49.314Z,2.58
2023-05-02T01:25:38.100Z,2.43
2023-05-02T01:28:22.746Z,2.55
2023-05-02T01:30:51.958Z,2.50
2023-05-02T01:33:20.850Z,1.92
2023-05-02T01:35:52.004Z,2.50
2023-05-02T01:38:22.373Z,2.97
2023-05-02T01:40:51.788Z,2.53
2023-05-02T01:43:20.858Z,2.40
2023-05-02T01:45:51.144Z,2.87
2023-05-02T01:48:19.751Z,2.20
2023-05-02T01:50:48.191Z,2.83
2023-05-02T01:53:15.816Z,2.60
2023-05-02T01:55:46.207Z,2.47
2023-05-02T01:58:15.536Z,2.58
2023-05-02T02:00:45.609Z,2.33
2023-05-02T02:03:14.399Z,2.15
2023-05-02T02:05:42.750Z,2.62
2023-05-02T02:08:09.935Z,2.40
2023-05-02T02:10:45.345Z,2.08
2023-05-02T02:13:26.067Z,2.08
2023-05-02T02:15:59.664Z,2.10
2023-05-02T02:18:29.203Z,2.40
2023-05-02T02:20:58.679Z,2.72
2023-05-02T02:23:28.731Z,2.20
2023-05-02T02:25:57.278Z,2.78
2023-05-02T02:28:24.367Z,2.30
2023-05-02T02:30:51.580Z,2.50
2023-05-02T02:33:19.817Z,2.05
2023-05-02T02:35:58.929Z,2.20
2023-05-02T02:39:03.991Z,2.30
2023-05-02T02:41:42.687Z,2.62
2023-05-02T02:44:26.837Z,3.05
2023-05-02T02:47:06.989Z,2.70
2023-05-02T02:49:47.920Z,3.10
2023-05-02T02:52:28.489Z,2.83
2023-05-02T02:55:35.879Z,3.15
2023-05-02T02:58:13.553Z,3.60
2023-05-02T03:00:41.303Z,2.85
2023-05-02T03:03:08.947Z,2.78
2023-05-02T03:05:36.271Z,2.97
2023-05-02T03:08:03.492Z,2.95
2023-05-02T03:10:30.457Z,4.12
2023-05-02T03:12:57.402Z,2.83
2023-05-02T03:15:51.897Z,2.37
2023-05-02T03:18:19.464Z,3.37
2023-05-02T03:20:46.645Z,3.30
2023-05-02T03:23:13.680Z,3.00
2023-05-02T03:25:40.575Z,3.58
2023-05-02T03:28:07.506Z,4.12
2023-05-02T03:30:35.475Z,3.25
2023-05-02T03:33:05.110Z,3.08
2023-05-02T03:35:32.112Z,2.92
2023-05-02T03:37:59.090Z,2.40
2023-05-02T03:40:28.073Z,3.30
2023-05-02T03:42:55.244Z,3.60
2023-05-02T03:45:22.174Z,3.28
2023-05-02T03:47:49.093Z,2.80
2023-05-02T03:50:16.163Z,3.00
2023-05-02T03:52:43.136Z,5.05
2023-05-02T03:55:10.860Z,3.37
2023-05-02T03:57:37.808Z,4.57
2023-05-02T04:00:06.028Z,3.05
2023-05-02T04:02:33.082Z,2.80
2023-05-02T04:05:00.046Z,3.72
2023-05-02T04:07:27.276Z,3.60
2023-05-02T04:09:54.190Z,3.10
2023-05-02T04:12:21.416Z,3.03
2023-05-02T04:14:48.416Z,2.67
2023-05-02T04:17:18.692Z,3.72
2023-05-02T04:19:45.678Z,2.97
2023-05-02T04:22:12.942Z,3.47
2023-05-02T04:24:39.856Z,3.20
2023-05-02T04:27:06.745Z,3.55
2023-05-02T04:29:33.869Z,5.45
2023-05-02T04:32:00.787Z,5.03
2023-05-02T04:34:28.652Z,5.75
2023-05-02T04:36:55.621Z,5.40
2023-05-02T04:39:22.557Z,5.05
2023-05-02T04:41:49.434Z,4.82
2023-05-02T04:44:16.428Z,5.03
2023-05-02T04:46:43.981Z,4.53
2023-05-02T04:49:11.855Z,5.85
2023-05-02T04:51:38.860Z,4.60
2023-05-02T04:54:05.851Z,4.65
2023-05-02T04:56:32.757Z,4.50
2023-05-02T04:58:59.702Z,3.50
2023-05-02T05:01:29.309Z,5.50
2023-05-02T05:06:23.537Z,3.53
2023-05-02T05:08:50.577Z,4.20
2023-05-02T05:11:17.798Z,3.58
2023-05-02T05:13:44.755Z,3.35
2023-05-02T05:16:12.281Z,3.40
2023-05-02T05:18:42.133Z,3.35
2023-05-02T05:21:10.215Z,4.40
2023-05-02T05:23:38.444Z,3.55
2023-05-02T05:26:12.294Z,3.40
2023-05-02T05:28:39.724Z,3.62
2023-05-02T05:31:11.257Z,3.92
2023-05-02T05:33:39.719Z,3.53
2023-05-02T05:36:15.767Z,3.33
2023-05-02T05:38:42.767Z,3.80
2023-05-02T05:41:14.248Z,3.92
2023-05-02T05:43:50.077Z,3.62
2023-05-02T05:46:17.571Z,4.05
2023-05-02T05:48:44.661Z,3.60
2023-05-02T05:51:11.929Z,3.90
2023-05-02T05:53:40.681Z,3.72
2023-05-02T05:56:13.067Z,3.93
2023-05-02T05:58:40.583Z,4.35
2023-05-02T06:01:08.684Z,3.42
2023-05-02T06:03:35.737Z,3.45
2023-05-02T06:06:02.854Z,4.20
2023-05-02T06:08:30.491Z,4.15
2023-05-02T06:11:01.629Z,4.12
2023-05-02T06:13:28.634Z,4.45
2023-05-02T06:15:55.586Z,3.15
2023-05-02T06:18:22.669Z,5.07
2023-05-02T06:20:49.619Z,4.20
2023-05-02T06:23:16.642Z,3.72
2023-05-02T06:25:43.585Z,3.78
2023-05-02T06:28:10.661Z,3.53
2023-05-02T06:30:37.626Z,3.62
2023-05-02T06:33:05.668Z,4.85
2023-05-02T06:35:32.706Z,3.62
2023-05-02T06:38:00.255Z,4.28
2023-05-02T06:40:27.500Z,3.80
2023-05-02T06:42:54.609Z,3.90
2023-05-02T06:45:21.725Z,3.35
2023-05-02T06:47:48.719Z,3.85
2023-05-02T06:50:16.287Z,3.55
2023-05-02T06:52:43.288Z,4.07
2023-05-02T06:55:10.339Z,3.97
2023-05-02T06:57:37.347Z,4.20
2023-05-02T07:00:05.135Z,4.10
2023-05-02T07:02:32.397Z,3.20
2023-05-02T07:04:59.430Z,3.70
2023-05-02T07:07:26.421Z,4.65
2023-05-02T07:09:53.483Z,4.15
2023-05-02T07:12:21.094Z,3.87
2023-05-02T07:14:48.132Z,4.20
2023-05-02T07:17:16.068Z,3.70
2023-05-02T07:19:45.237Z,3.75
2023-05-02T07:22:12.734Z,3.55
2023-05-02T07:24:43.225Z,4.78
2023-05-02T07:27:12.542Z,4.03
2023-05-02T07:29:40.299Z,3.67
2023-05-02T07:32:07.434Z,3.67
2023-05-02T07:34:35.173Z,3.80
2023-05-02T07:37:02.332Z,4.05
2023-05-02T07:39:30.133Z,3.45
2023-05-02T07:41:57.223Z,4.25
2023-05-02T07:44:24.558Z,4.47
2023-05-02T07:46:53.274Z,3.25
2023-05-02T07:49:20.988Z,4.13
2023-05-02T07:51:48.364Z,4.10
2023-05-02T07:54:18.164Z,3.55
2023-05-02T07:56:45.321Z,3.70
2023-05-02T07:59:12.501Z,3.08
2023-05-02T08:01:40.809Z,4.87
2023-05-02T08:04:09.886Z,3.10
2023-05-02T08:06:37.583Z,4.03
2023-05-02T08:09:04.766Z,3.67
2023-05-02T08:11:31.747Z,4.97
2023-05-02T08:13:58.751Z,4.10
2023-05-02T08:16:25.925Z,4.40
2023-05-02T08:18:52.942Z,4.70
2023-05-02T08:21:20.011Z,4.22
2023-05-02T08:23:47.801Z,3.45
2023-05-02T08:26:19.165Z,3.78
2023-05-02T08:29:06.779Z,4.10
2023-05-02T08:31:36.926Z,4.20
2023-05-02T08:34:04.191Z,3.85
2023-05-02T08:36:32.603Z,3.72
2023-05-02T08:39:00.179Z,3.53
2023-05-02T08:41:29.507Z,3.50
2023-05-02T08:43:57.296Z,4.00
2023-05-02T08:46:26.386Z,3.92
2023-05-02T08:48:54.435Z,3.70
2023-05-02T08:51:24.722Z,4.35
2023-05-02T08:53:53.269Z,3.60
2023-05-02T08:56:20.880Z,4.12
2023-05-02T08:58:47.966Z,3.70
2023-05-02T09:01:19.832Z,4.18
2023-05-02T09:03:48.634Z,3.70
2023-05-02T09:06:21.394Z,3.75
2023-05-02T09:08:50.217Z,4.70
2023-05-02T09:11:17.726Z,3.60
2023-05-02T09:13:52.472Z,4.32
2023-05-02T09:16:24.150Z,4.50
2023-05-02T09:18:59.004Z,3.87
2023-05-02T09:21:35.133Z,4.43
2023-05-02T09:24:04.155Z,4.20
2023-05-02T09:26:32.974Z,3.65
2023-05-02T09:29:07.155Z,3.58
2023-05-02T09:34:14.917Z,5.05
2023-05-02T09:36:44.349Z,3.35
2023-05-02T09:41:43.866Z,3.15
2023-05-02T09:44:12.959Z,3.53
2023-05-02T09:46:42.347Z,3.12
2023-05-02T09:49:12.983Z,3.40
2023-05-02T09:51:40.077Z,3.75
2023-05-02T09:54:07.450Z,3.22
2023-05-02T09:56:57.015Z,3.80
2023-05-02T09:59:24.966Z,3.65
2023-05-02T10:02:03.316Z,3.40
2023-05-02T10:04:32.955Z,4.07
2023-05-02T10:07:02.039Z,3.62
2023-05-02T10:09:32.924Z,3.40
2023-05-02T10:12:08.675Z,3.65
2023-05-02T10:14:51.074Z,3.90
2023-05-02T10:17:28.651Z,3.78
2023-05-02T10:20:06.832Z,3.45
2023-05-02T10:22:35.610Z,3.12
2023-05-02T10:25:04.175Z,3.10
2023-05-02T10:27:32.429Z,3.78
2023-05-02T10:30:00.819Z,4.37
2023-05-02T10:32:29.734Z,4.05
2023-05-02T10:35:07.378Z,4.07
2023-05-02T10:37:38.764Z,4.40
2023-05-02T10:40:06.756Z,3.75
2023-05-02T10:42:40.543Z,3.87
2023-05-02T10:45:30.644Z,4.30
2023-05-02T10:48:19.917Z,3.60
2023-05-02T10:50:56.400Z,4.97
2023-05-02T10:53:37.087Z,4.12
2023-05-02T10:56:21.990Z,3.83
2023-05-02T10:58:51.916Z,4.03
2023-05-02T11:01:31.313Z,4.05
2023-05-02T11:06:29.146Z,3.90
2023-05-02T11:09:16.700Z,4.18
2023-05-02T11:11:45.176Z,4.18
2023-05-02T11:14:32.756Z,4.28
2023-05-02T11:17:05.655Z,4.18
2023-05-02T11:19:39.158Z,3.97
2023-05-02T11:22:19.319Z,4.35
2023-05-02T11:24:48.396Z,5.00
2023-05-02T11:27:30.776Z,3.55
2023-05-02T11:29:58.958Z,3.55
2023-05-02T11:32:50.180Z,6.60
2023-05-02T11:35:21.330Z,4.47
2023-05-02T11:37:59.873Z,5.12
2023-05-02T11:40:28.630Z,4.43
2023-05-02T11:42:57.859Z,4.28
2023-05-02T11:45:38.177Z,4.57
2023-05-02T11:48:09.602Z,2.97
2023-05-02T11:50:50.174Z,2.90
2023-05-02T11:53:23.740Z,4.32
2023-05-02T11:55:55.888Z,4.87
2023-05-02T11:58:24.839Z,4.50
2023-05-02T12:00:53.370Z,4.32
2023-05-02T12:03:22.698Z,4.77
2023-05-02T12:05:50.578Z,4.82
2023-05-02T12:08:28.416Z,4.70
2023-05-02T12:10:56.827Z,4.53
2023-05-02T12:13:25.864Z,5.12
2023-05-02T12:15:54.749Z,5.07
2023-05-02T12:18:27.243Z,4.60
2023-05-02T12:20:55.823Z,3.87
2023-05-02T12:23:24.957Z,4.67
2023-05-02T12:25:52.138Z,5.45
2023-05-02T12:28:20.518Z,4.55
2023-05-02T12:30:49.182Z,4.10
2023-05-02T12:33:17.493Z,4.27
2023-05-02T12:35:49.251Z,4.47
2023-05-02T12:38:18.540Z,4.57
2023-05-02T12:40:53.986Z,4.32
2023-05-02T12:43:22.336Z,4.50
2023-05-02T12:45:50.380Z,3.58
2023-05-02T12:48:27.860Z,4.10
2023-05-02T12:50:55.897Z,3.72
2023-05-02T12:53:45.317Z,3.97
2023-05-02T12:58:48.365Z,3.33
2023-05-02T13:01:16.365Z,4.20
2023-05-02T13:03:44.400Z,11.40
2023-05-02T13:06:12.091Z,4.10
2023-05-02T13:08:39.621Z,4.37
2023-05-02T13:11:06.757Z,4.65
2023-05-02T13:13:35.733Z,3.80
2023-05-02T13:16:03.006Z,3.45
2023-05-02T13:18:30.251Z,3.95
2023-05-02T13:20:57.412Z,3.97
2023-05-02T13:23:24.692Z,3.92
2023-05-02T13:25:52.024Z,3.45
2023-05-02T13:28:19.201Z,3.67
2023-05-02T13:30:46.359Z,4.32
2023-05-02T13:33:19.574Z,4.15
2023-05-02T13:35:47.933Z,4.72
2023-05-02T13:38:14.998Z,3.80
2023-05-02T13:40:42.163Z,4.78
2023-05-02T13:43:13.419Z,3.53
2023-05-02T13:45:40.415Z,4.00
2023-05-02T13:48:07.510Z,4.53
2023-05-02T13:50:37.657Z,4.45
2023-05-02T13:53:20.215Z,5.45
2023-05-02T13:55:49.038Z,4.82
2023-05-02T13:58:16.119Z,4.97
2023-05-02T14:00:43.177Z,5.22
2023-05-02T14:03:43.371Z,6.30
2023-05-02T14:06:10.749Z,5.55
2023-05-02T14:08:38.717Z,5.12
2023-05-02T14:11:07.296Z,5.30
2023-05-02T14:13:34.590Z,5.40
2023-05-02T14:16:01.681Z,6.82
2023-05-02T14:18:28.720Z,5.43
2023-05-02T14:21:00.160Z,5.68
2023-05-02T14:23:28.636Z,6.40
2023-05-02T14:25:56.063Z,5.97
2023-05-02T14:28:23.406Z,5.55
2023-05-02T14:30:51.331Z,5.32
2023-05-02T14:33:18.362Z,6.85
2023-05-02T14:35:46.067Z,5.68
2023-05-02T14:38:13.031Z,6.40
2023-05-02T14:40:40.004Z,5.47
2023-05-02T14:43:07.632Z,6.47
2023-05-02T14:45:35.143Z,7.18
2023-05-02T14:48:02.182Z,7.35
2023-05-02T14:50:29.524Z,6.00
2023-05-02T14:52:56.522Z,6.15
2023-05-02T14:55:23.555Z,6.45
2023-05-02T14:57:50.604Z,6.43
2023-05-02T15:00:17.973Z,6.62
2023-05-02T15:02:45.004Z,6.65
2023-05-02T15:05:12.917Z,7.18
2023-05-02T15:07:40.167Z,7.43
2023-05-02T15:10:07.666Z,5.70
2023-05-02T15:12:34.650Z,6.20
2023-05-02T15:15:01.590Z,7.15
2023-05-02T15:17:28.614Z,6.65
2023-05-02T15:19:58.260Z,6.82
2023-05-02T15:22:26.349Z,7.00
2023-05-02T15:24:53.956Z,7.30
2023-05-02T15:27:21.028Z,6.97
2023-05-02T15:29:47.963Z,9.90
2023-05-02T15:32:15.001Z,10.80
2023-05-02T15:34:41.961Z,8.80
2023-05-02T15:37:08.924Z,8.23
2023-05-02T15:39:35.805Z,7.70
2023-05-02T15:42:06.498Z,7.37
2023-05-02T15:44:38.856Z,7.45
2023-05-02T15:47:06.015Z,7.50
2023-05-02T15:49:34.671Z,7.43
2023-05-02T15:52:02.985Z,7.87
2023-05-02T15:54:30.114Z,6.70
2023-05-02T15:56:57.377Z,6.90
2023-05-02T15:59:24.377Z,7.87
2023-05-02T16:01:51.545Z,8.90
2023-05-02T16:04:18.601Z,8.65
2023-05-02T16:06:45.914Z,13.32
2023-05-02T16:09:13.198Z,10.38
2023-05-02T16:11:40.176Z,9.60
2023-05-02T16:14:07.077Z,9.02
2023-05-02T16:16:34.609Z,7.85
2023-05-02T16:19:01.600Z,8.07
2023-05-02T16:21:28.653Z,8.13
2023-05-02T16:23:55.728Z,8.90
2023-05-02T16:26:22.660Z,7.45
2023-05-02T16:28:49.616Z,7.68
2023-05-02T16:31:16.676Z,7.55
2023-05-02T16:33:43.594Z,8.13
2023-05-02T16:36:10.557Z,10.45
2023-05-02T16:38:37.566Z,9.77
2023-05-02T16:41:07.275Z,12.55
2023-05-02T16:43:34.336Z,10.05
2023-05-02T16:46:02.827Z,9.95
2023-05-02T16:48:29.975Z,9.25
2023-05-02T16:50:57.279Z,10.75
2023-05-02T16:53:24.802Z,9.90
2023-05-02T16:55:51.910Z,9.35
2023-05-02T16:58:19.418Z,9.73
2023-05-02T17:00:46.564Z,9.25
2023-05-02T17:03:13.683Z,8.65
2023-05-02T17:05:41.666Z,9.73
2023-05-02T17:08:09.254Z,8.73
2023-05-02T17:10:37.405Z,9.47
2023-05-02T17:13:04.413Z,9.10
2023-05-02T17:15:31.555Z,10.13
2023-05-02T17:17:58.499Z,11.05
2023-05-02T17:20:25.506Z,10.07
2023-05-02T17:22:54.632Z,10.15
2023-05-02T17:25:21.610Z,9.38
2023-05-02T17:27:48.533Z,9.63
2023-05-02T17:30:15.506Z,10.38
2023-05-02T17:32:42.466Z,10.48
2023-05-02T17:35:09.934Z,9.93
2023-05-02T17:37:38.479Z,9.18
2023-05-02T17:40:06.364Z,11.25
2023-05-02T17:42:33.304Z,10.20
2023-05-02T17:45:00.286Z,9.27
2023-05-02T17:47:27.192Z,9.88
2023-05-02T17:49:54.552Z,11.70
2023-05-02T17:52:21.865Z,10.50
2023-05-02T17:54:48.822Z,10.30
2023-05-02T17:57:17.277Z,11.15
2023-05-02T17:59:44.761Z,12.32
2023-05-02T18:02:11.852Z,12.23
2023-05-02T18:04:38.896Z,11.88
2023-05-02T18:07:06.267Z,11.93
2023-05-02T18:09:33.291Z,12.57
2023-05-02T18:12:00.949Z,12.88
2023-05-02T18:14:27.892Z,13.40
2023-05-02T18:16:54.879Z,11.98
2023-05-02T18:19:23.190Z,14.63
2023-05-02T18:21:50.286Z,12.98
2023-05-02T18:24:17.209Z,12.40
2023-05-02T18:26:44.145Z,15.18
2023-05-02T18:29:11.109Z,13.90
2023-05-02T18:31:40.561Z,14.45
2023-05-02T18:34:07.712Z,15.02
2023-05-02T18:36:34.747Z,14.82
2023-05-02T18:39:01.675Z,15.10
2023-05-02T18:41:28.663Z,14.87
2023-05-02T18:43:56.691Z,16.42
2023-05-02T18:46:24.428Z,14.83
2023-05-02T18:48:51.443Z,16.17
2023-05-02T18:51:18.716Z,16.25
2023-05-02T18:53:45.674Z,15.25
2023-05-02T18:56:14.723Z,17.80
2023-05-02T18:58:42.435Z,17.05
2023-05-02T19:01:16.081Z,17.48
2023-05-02T19:03:44.011Z,16.50
2023-05-02T19:06:11.319Z,17.85
2023-05-02T19:08:40.421Z,17.85
2023-05-02T19:11:07.575Z,16.95
2023-05-02T19:13:34.676Z,23.52
2023-05-02T19:16:01.765Z,18.50
2023-05-02T19:18:28.759Z,19.40
2023-05-02T19:20:55.772Z,17.83
2023-05-02T19:23:23.392Z,19.90
2023-05-02T19:25:50.418Z,20.85
2023-05-02T19:28:17.463Z,20.20
2023-05-02T19:30:44.874Z,18.60
2023-05-02T19:33:12.064Z,19.40
2023-05-02T19:35:39.650Z,21.85
2023-05-02T19:38:06.613Z,22.80
2023-05-02T19:40:33.626Z,24.40
2023-05-02T19:43:00.729Z,19.48
2023-05-02T19:45:27.998Z,22.50
2023-05-02T19:47:55.052Z,20.73
2023-05-02T19:50:22.004Z,20.60
2023-05-02T19:52:50.719Z,23.17
2023-05-02T19:55:18.748Z,18.75
2023-05-02T19:57:45.802Z,21.55
2023-05-02T20:00:14.271Z,19.33
2023-05-02T20:02:41.454Z,20.15
2023-05-02T20:05:09.012Z,16.40
2023-05-02T20:07:36.328Z,21.20
2023-05-02T20:10:03.873Z,24.17
2023-05-02T20:12:31.003Z,18.75
2023-05-02T20:14:57.920Z,19.17
2023-05-02T20:17:24.886Z,20.95
2023-05-02T20:19:51.848Z,18.75
2023-05-02T20:22:19.356Z,16.08
2023-05-02T20:24:46.508Z,18.62
2023-05-02T20:27:13.738Z,19.20
2023-05-02T20:29:40.894Z,18.45
2023-05-02T20:32:09.413Z,20.27
2023-05-02T20:34:36.523Z,19.77
2023-05-02T20:37:07.136Z,19.00
2023-05-02T20:39:34.046Z,18.67
2023-05-02T20:42:01.636Z,17.20
2023-05-02T20:44:28.715Z,16.42
2023-05-02T20:46:55.698Z,16.45
2023-05-02T20:49:22.663Z,17.02
2023-05-02T20:51:50.457Z,17.00
2023-05-02T20:54:18.403Z,17.37
2023-05-02T20:56:45.526Z,15.75
2023-05-02T20:59:12.650Z,16.08
2023-05-02T21:01:39.662Z,16.08
2023-05-02T21:04:06.760Z,17.25
2023-05-02T21:06:33.900Z,19.67
2023-05-02T21:09:02.420Z,18.40
2023-05-02T21:11:29.518Z,18.23
2023-05-02T21:13:56.444Z,16.83
2023-05-02T21:16:23.599Z,17.30
2023-05-02T21:18:50.705Z,17.48
2023-05-02T21:21:17.714Z,15.88
2023-05-02T21:23:44.737Z,15.43
2023-05-02T21:26:11.797Z,15.57
2023-05-02T21:28:38.933Z,16.17
2023-05-02T21:31:07.867Z,16.02
2023-05-02T21:33:35.005Z,15.40
2023-05-02T21:36:01.956Z,16.12
2023-05-02T21:38:29.363Z,15.23
2023-05-02T21:40:56.378Z,14.80
2023-05-02T21:43:23.439Z,16.23
2023-05-02T21:45:50.799Z,15.02
2023-05-02T21:48:17.800Z,16.15
2023-05-02T21:50:45.263Z,15.73
2023-05-02T21:53:12.938Z,15.73
2023-05-02T21:55:39.980Z,16.92
2023-05-02T21:58:08.718Z,17.05
2023-05-02T22:00:40.835Z,14.77
2023-05-02T22:03:11.805Z,17.62
2023-05-02T22:05:42.347Z,18.70
2023-05-02T22:08:11.293Z,18.60
2023-05-02T22:10:40.453Z,18.17
2023-05-02T22:13:12.523Z,17.37
2023-05-02T22:15:47.395Z,17.75
2023-05-02T22:18:18.002Z,17.25
2023-05-02T22:20:45.708Z,19.67
2023-05-02T22:23:13.091Z,18.02
2023-05-02T22:25:42.404Z,18.00
2023-05-02T22:28:13.808Z,17.87
2023-05-02T22:30:43.265Z,17.55
2023-05-02T22:33:10.256Z,17.45
2023-05-02T22:35:38.029Z,16.35
2023-05-02T22:38:06.088Z,17.60
2023-05-02T22:40:33.372Z,18.65
2023-05-02T22:43:01.146Z,17.45
2023-05-02T22:45:28.176Z,17.10
2023-05-02T22:47:55.500Z,20.52
2023-05-02T22:50:22.491Z,18.55
2023-05-02T22:52:49.508Z,19.70
2023-05-02T22:55:16.533Z,19.02
2023-05-02T22:57:43.668Z,18.45
2023-05-02T23:00:11.438Z,18.58
2023-05-02T23:02:38.781Z,18.25
2023-05-02T23:05:07.258Z,19.05
2023-05-02T23:07:34.357Z,19.12
2023-05-02T23:10:01.876Z,20.17
2023-05-02T23:12:29.125Z,18.70
2023-05-02T23:14:56.115Z,18.55
2023-05-02T23:17:23.428Z,18.98
2023-05-02T23:19:50.734Z,19.50
2023-05-02T23:22:17.811Z,19.00
2023-05-02T23:24:47.598Z,19.37
2023-05-02T23:27:14.498Z,16.80
2023-05-02T23:29:41.497Z,17.50
2023-05-02T23:32:08.767Z,17.95
2023-05-02T23:34:38.878Z,17.48
2023-05-02T23:37:07.138Z,18.15
2023-05-02T23:39:34.451Z,16.65
2023-05-02T23:42:03.917Z,15.40
2023-05-02T23:44:31.547Z,16.62
2023-05-02T23:47:01.557Z,15.40
2023-05-02T23:49:28.571Z,15.07
2023-05-02T23:51:55.612Z,13.60
2023-05-02T23:54:22.540Z,13.98
2023-05-02T23:56:49.531Z,13.88
2023-05-02T23:59:16.561Z,12.02
